sensor_id;sensor_type;location;lat;lon;timestamp;P1;durP1;ratioP1;P2;durP2;ratioP2
61407;SDS011;47274;43.054;25.146;2023-02-01T09:53:24;12.67;;;4.90;;
61407;SDS011;47274;43.054;25.146;2023-02-01T09:56:00;10.27;;;4.63;;
61407;SDS011;47274;43.054;25.146;2023-02-01T09:58:36;10.53;;;4.30;;
61407;SDS011;47274;43.054;25.146;2023-02-01T10:01:17;17.90;;;6.30;;
61407;SDS011;47274;43.054;25.146;2023-02-01T10:03:50;13.73;;;5.40;;
61407;SDS011;47274;43.054;25.146;2023-02-01T10:06:28;15.88;;;5.80;;
61407;SDS011;47274;43.054;25.146;2023-02-01T10:09:29;15.80;;;5.70;;
61407;SDS011;47274;43.054;25.146;2023-02-01T10:15:15;16.75;;;6.25;;
61407;SDS011;47274;43.054;25.146;2023-02-01T10:17:58;17.00;;;6.23;;
61407;SDS011;47274;43.054;25.146;2023-02-01T10:20:56;16.37;;;5.83;;
61407;SDS011;47274;43.054;25.146;2023-02-01T10:26:23;33.90;;;16.60;;
61407;SDS011;47274;43.054;25.146;2023-02-01T10:28:59;25.43;;;11.27;;
61407;SDS011;47274;43.054;25.146;2023-02-01T10:31:28;17.63;;;6.70;;
61407;SDS011;47274;43.054;25.146;2023-02-01T10:33:59;15.57;;;5.27;;
61407;SDS011;47274;43.054;25.146;2023-02-01T10:36:33;12.73;;;4.50;;
61407;SDS011;47274;43.054;25.146;2023-02-01T10:39:02;10.73;;;4.40;;
61407;SDS011;47274;43.054;25.146;2023-02-01T10:41:35;12.10;;;4.33;;
61407;SDS011;47274;43.054;25.146;2023-02-01T10:44:09;11.95;;;4.18;;
61407;SDS011;47274;43.054;25.146;2023-02-01T10:46:38;10.48;;;4.55;;
61407;SDS011;47274;43.054;25.146;2023-02-01T10:49:05;10.00;;;3.88;;
61407;SDS011;47274;43.054;25.146;2023-02-01T10:52:00;12.32;;;4.40;;
61407;SDS011;47274;43.054;25.146;2023-02-01T10:54:33;11.38;;;4.70;;
61407;SDS011;47274;43.054;25.146;2023-02-01T10:57:03;8.48;;;3.45;;
61407;SDS011;47274;43.054;25.146;2023-02-01T10:59:34;7.93;;;3.92;;
61407;SDS011;47274;43.054;25.146;2023-02-01T11:02:05;6.43;;;3.28;;
61407;SDS011;47274;43.054;25.146;2023-02-01T11:05:26;9.10;;;3.97;;
61407;SDS011;47274;43.054;25.146;2023-02-01T11:07:54;9.18;;;3.85;;
61407;SDS011;47274;43.054;25.146;2023-02-01T11:10:36;22.75;;;11.40;;
61407;SDS011;47274;43.054;25.146;2023-02-01T11:13:17;7.68;;;3.97;;
61407;SDS011;47274;43.054;25.146;2023-02-01T11:15:47;6.53;;;3.33;;
61407;SDS011;47274;43.054;25.146;2023-02-01T11:18:27;7.90;;;3.50;;
61407;SDS011;47274;43.054;25.146;2023-02-01T11:20:54;9.00;;;3.53;;
61407;SDS011;47274;43.054;25.146;2023-02-01T11:23:21;7.72;;;3.40;;
61407;SDS011;47274;43.054;25.146;2023-02-01T11:28:55;9.13;;;3.63;;
61407;SDS011;47274;43.054;25.146;2023-02-01T11:31:26;7.82;;;3.60;;
61407;SDS011;47274;43.054;25.146;2023-02-01T11:34:00;4.97;;;2.75;;
61407;SDS011;47274;43.054;25.146;2023-02-01T11:36:35;5.65;;;2.90;;
61407;SDS011;47274;43.054;25.146;2023-02-01T11:39:18;5.45;;;2.90;;
61407;SDS011;47274;43.054;25.146;2023-02-01T11:42:11;6.43;;;2.78;;
61407;SDS011;47274;43.054;25.146;2023-02-01T11:44:43;7.18;;;3.40;;
61407;SDS011;47274;43.054;25.146;2023-02-01T11:47:24;5.68;;;3.03;;
61407;SDS011;47274;43.054;25.146;2023-02-01T11:49:54;6.07;;;2.80;;
61407;SDS011;47274;43.054;25.146;2023-02-01T11:55:17;5.18;;;2.92;;
61407;SDS011;47274;43.054;25.146;2023-02-01T12:03:29;7.18;;;3.17;;
61407;SDS011;47274;43.054;25.146;2023-02-01T12:17:30;4.97;;;3.03;;
61407;SDS011;47274;43.054;25.146;2023-02-01T12:32:07;4.22;;;3.00;;
61407;SDS011;47274;43.054;25.146;2023-02-01T12:35:13;7.60;;;2.85;;
61407;SDS011;47274;43.054;25.146;2023-02-01T12:38:02;7.22;;;3.08;;
61407;SDS011;47274;43.054;25.146;2023-02-01T12:40:47;4.90;;;2.88;;
61407;SDS011;47274;43.054;25.146;2023-02-01T12:43:16;5.90;;;2.80;;
61407;SDS011;47274;43.054;25.146;2023-02-01T12:45:55;5.22;;;2.70;;
61407;SDS011;47274;43.054;25.146;2023-02-01T12:48:29;3.50;;;2.60;;
61407;SDS011;47274;43.054;25.146;2023-02-01T12:51:15;3.65;;;2.78;;
61407;SDS011;47274;43.054;25.146;2023-02-01T12:56:34;6.20;;;2.83;;
61407;SDS011;47274;43.054;25.146;2023-02-01T13:01:37;4.10;;;3.20;;
61407;SDS011;47274;43.054;25.146;2023-02-01T13:06:47;7.55;;;3.92;;
61407;SDS011;47274;43.054;25.146;2023-02-01T13:09:41;10.98;;;4.28;;
61407;SDS011;47274;43.054;25.146;2023-02-01T13:12:36;13.45;;;4.75;;
61407;SDS011;47274;43.054;25.146;2023-02-01T13:17:39;7.45;;;3.63;;
61407;SDS011;47274;43.054;25.146;2023-02-01T13:23:03;3.78;;;2.83;;
61407;SDS011;47274;43.054;25.146;2023-02-01T13:25:45;8.48;;;3.50;;
61407;SDS011;47274;43.054;25.146;2023-02-01T13:28:17;8.43;;;3.60;;
61407;SDS011;47274;43.054;25.146;2023-02-01T13:33:41;4.85;;;2.70;;
61407;SDS011;47274;43.054;25.146;2023-02-01T13:36:22;5.38;;;2.90;;
61407;SDS011;47274;43.054;25.146;2023-02-01T13:45:01;4.50;;;2.83;;
61407;SDS011;47274;43.054;25.146;2023-02-01T13:47:47;6.47;;;2.75;;
61407;SDS011;47274;43.054;25.146;2023-02-01T13:52:56;8.38;;;3.65;;
61407;SDS011;47274;43.054;25.146;2023-02-01T13:58:10;4.60;;;2.92;;
61407;SDS011;47274;43.054;25.146;2023-02-01T14:01:32;11.35;;;3.88;;
61407;SDS011;47274;43.054;25.146;2023-02-01T14:03:53;11.80;;;3.63;;
61407;SDS011;47274;43.054;25.146;2023-02-01T14:11:52;24.92;;;8.25;;
61407;SDS011;47274;43.054;25.146;2023-02-01T14:19:22;11.83;;;3.97;;
61407;SDS011;47274;43.054;25.146;2023-02-01T14:24:27;13.93;;;4.97;;
61407;SDS011;47274;43.054;25.146;2023-02-01T14:26:55;10.93;;;4.17;;
61407;SDS011;47274;43.054;25.146;2023-02-01T14:29:50;11.33;;;4.20;;
61407;SDS011;47274;43.054;25.146;2023-02-01T14:32:36;13.30;;;4.80;;
61407;SDS011;47274;43.054;25.146;2023-02-01T14:35:08;14.57;;;5.27;;
61407;SDS011;47274;43.054;25.146;2023-02-01T14:37:46;13.90;;;7.63;;
61407;SDS011;47274;43.054;25.146;2023-02-01T14:40:18;7.23;;;3.60;;
61407;SDS011;47274;43.054;25.146;2023-02-01T14:42:52;8.27;;;4.40;;
61407;SDS011;47274;43.054;25.146;2023-02-01T14:53:17;10.05;;;4.45;;
61407;SDS011;47274;43.054;25.146;2023-02-01T14:55:58;8.60;;;4.20;;
61407;SDS011;47274;43.054;25.146;2023-02-01T15:01:32;6.23;;;3.40;;
61407;SDS011;47274;43.054;25.146;2023-02-01T15:06:39;17.30;;;6.47;;
61407;SDS011;47274;43.054;25.146;2023-02-01T15:09:18;16.63;;;6.47;;
61407;SDS011;47274;43.054;25.146;2023-02-01T15:11:56;14.60;;;5.73;;
61407;SDS011;47274;43.054;25.146;2023-02-01T15:17:49;9.70;;;4.90;;
61407;SDS011;47274;43.054;25.146;2023-02-01T15:23:05;16.27;;;7.13;;
61407;SDS011;47274;43.054;25.146;2023-02-01T15:25:44;16.37;;;6.57;;
61407;SDS011;47274;43.054;25.146;2023-02-01T15:28:15;16.13;;;6.10;;
61407;SDS011;47274;43.054;25.146;2023-02-01T15:30:52;10.37;;;5.17;;
61407;SDS011;47274;43.054;25.146;2023-02-01T15:33:20;9.50;;;4.60;;
61407;SDS011;47274;43.054;25.146;2023-02-01T15:35:51;13.63;;;5.37;;
61407;SDS011;47274;43.054;25.146;2023-02-01T15:38:43;13.90;;;5.50;;
61407;SDS011;47274;43.054;25.146;2023-02-01T15:43:47;20.47;;;8.27;;
61407;SDS011;47274;43.054;25.146;2023-02-01T15:46:39;13.80;;;5.20;;
61407;SDS011;47274;43.054;25.146;2023-02-01T15:51:52;10.50;;;4.80;;
61407;SDS011;47274;43.054;25.146;2023-02-01T15:54:31;13.73;;;5.80;;
61407;SDS011;47274;43.054;25.146;2023-02-01T15:57:06;13.90;;;5.07;;
61407;SDS011;47274;43.054;25.146;2023-02-01T15:59:51;15.03;;;6.80;;
61407;SDS011;47274;43.054;25.146;2023-02-01T16:02:40;11.03;;;4.47;;
61407;SDS011;47274;43.054;25.146;2023-02-01T16:05:25;9.70;;;4.97;;
61407;SDS011;47274;43.054;25.146;2023-02-01T16:08:00;10.10;;;5.20;;
61407;SDS011;47274;43.054;25.146;2023-02-01T16:10:30;8.93;;;4.13;;
61407;SDS011;47274;43.054;25.146;2023-02-01T16:13:06;8.40;;;4.23;;
61407;SDS011;47274;43.054;25.146;2023-02-01T16:15:34;4.67;;;3.20;;
61407;SDS011;47274;43.054;25.146;2023-02-01T16:18:02;10.33;;;4.23;;
61407;SDS011;47274;43.054;25.146;2023-02-01T16:20:29;8.87;;;4.57;;
61407;SDS011;47274;43.054;25.146;2023-02-01T16:22:55;12.33;;;5.13;;
61407;SDS011;47274;43.054;25.146;2023-02-01T16:25:22;11.27;;;5.00;;
61407;SDS011;47274;43.054;25.146;2023-02-01T16:27:47;8.40;;;4.13;;
61407;SDS011;47274;43.054;25.146;2023-02-01T16:30:13;9.50;;;4.53;;
61407;SDS011;47274;43.054;25.146;2023-02-01T16:32:40;11.00;;;4.33;;
61407;SDS011;47274;43.054;25.146;2023-02-01T16:35:19;11.70;;;4.20;;
61407;SDS011;47274;43.054;25.146;2023-02-01T16:38:01;10.57;;;4.70;;
61407;SDS011;47274;43.054;25.146;2023-02-01T16:40:37;10.37;;;4.50;;
61407;SDS011;47274;43.054;25.146;2023-02-01T16:43:10;11.60;;;4.50;;
61407;SDS011;47274;43.054;25.146;2023-02-01T16:45:40;6.53;;;3.83;;
61407;SDS011;47274;43.054;25.146;2023-02-01T16:48:16;6.33;;;3.57;;
61407;SDS011;47274;43.054;25.146;2023-02-01T16:50:56;28.47;;;13.83;;
61407;SDS011;47274;43.054;25.146;2023-02-01T16:53:28;23.23;;;9.70;;
61407;SDS011;47274;43.054;25.146;2023-02-01T16:56:12;30.17;;;14.03;;
61407;SDS011;47274;43.054;25.146;2023-02-01T16:58:43;19.47;;;7.70;;
61407;SDS011;47274;43.054;25.146;2023-02-01T17:01:13;23.07;;;10.70;;
61407;SDS011;47274;43.054;25.146;2023-02-01T17:03:42;17.00;;;7.60;;
61407;SDS011;47274;43.054;25.146;2023-02-01T17:06:11;21.97;;;8.47;;
61407;SDS011;47274;43.054;25.146;2023-02-01T17:08:50;25.13;;;9.63;;
61407;SDS011;47274;43.054;25.146;2023-02-01T17:11:18;25.90;;;10.07;;
61407;SDS011;47274;43.054;25.146;2023-02-01T17:13:44;24.93;;;10.33;;
61407;SDS011;47274;43.054;25.146;2023-02-01T17:16:21;29.83;;;12.27;;
61407;SDS011;47274;43.054;25.146;2023-02-01T17:19:05;24.03;;;9.67;;
61407;SDS011;47274;43.054;25.146;2023-02-01T17:21:49;25.03;;;10.53;;
61407;SDS011;47274;43.054;25.146;2023-02-01T17:24:25;24.70;;;10.00;;
61407;SDS011;47274;43.054;25.146;2023-02-01T17:26:53;22.55;;;8.50;;
61407;SDS011;47274;43.054;25.146;2023-02-01T17:29:21;22.17;;;8.30;;
61407;SDS011;47274;43.054;25.146;2023-02-01T17:31:49;20.23;;;8.00;;
61407;SDS011;47274;43.054;25.146;2023-02-01T17:34:20;22.17;;;7.83;;
61407;SDS011;47274;43.054;25.146;2023-02-01T17:36:50;18.57;;;6.93;;
61407;SDS011;47274;43.054;25.146;2023-02-01T17:39:21;20.77;;;7.20;;
61407;SDS011;47274;43.054;25.146;2023-02-01T17:42:09;22.30;;;7.43;;
61407;SDS011;47274;43.054;25.146;2023-02-01T17:44:37;21.43;;;8.17;;
61407;SDS011;47274;43.054;25.146;2023-02-01T17:47:03;15.83;;;6.20;;
61407;SDS011;47274;43.054;25.146;2023-02-01T17:49:29;14.23;;;5.20;;
61407;SDS011;47274;43.054;25.146;2023-02-01T17:51:58;11.00;;;4.83;;
61407;SDS011;47274;43.054;25.146;2023-02-01T17:54:27;19.03;;;8.50;;
61407;SDS011;47274;43.054;25.146;2023-02-01T17:56:55;23.27;;;9.77;;
61407;SDS011;47274;43.054;25.146;2023-02-01T17:59:29;26.20;;;11.13;;
61407;SDS011;47274;43.054;25.146;2023-02-01T18:01:58;26.00;;;11.03;;
61407;SDS011;47274;43.054;25.146;2023-02-01T18:04:26;24.43;;;9.97;;
61407;SDS011;47274;43.054;25.146;2023-02-01T18:06:54;24.83;;;12.03;;
61407;SDS011;47274;43.054;25.146;2023-02-01T18:09:24;25.70;;;11.70;;
61407;SDS011;47274;43.054;25.146;2023-02-01T18:11:54;24.23;;;11.70;;
61407;SDS011;47274;43.054;25.146;2023-02-01T18:14:30;23.13;;;13.63;;
61407;SDS011;47274;43.054;25.146;2023-02-01T18:16:59;19.47;;;10.37;;
61407;SDS011;47274;43.054;25.146;2023-02-01T18:19:26;15.60;;;7.57;;
61407;SDS011;47274;43.054;25.146;2023-02-01T18:21:53;11.27;;;5.20;;
61407;SDS011;47274;43.054;25.146;2023-02-01T18:24:25;17.43;;;6.13;;
61407;SDS011;47274;43.054;25.146;2023-02-01T18:26:55;11.97;;;5.60;;
61407;SDS011;47274;43.054;25.146;2023-02-01T18:29:24;12.33;;;5.27;;
61407;SDS011;47274;43.054;25.146;2023-02-01T18:31:53;13.20;;;5.27;;
61407;SDS011;47274;43.054;25.146;2023-02-01T18:34:21;15.20;;;6.80;;
61407;SDS011;47274;43.054;25.146;2023-02-01T18:36:49;13.93;;;6.17;;
61407;SDS011;47274;43.054;25.146;2023-02-01T18:39:18;12.33;;;5.20;;
61407;SDS011;47274;43.054;25.146;2023-02-01T18:41:50;13.90;;;5.80;;
61407;SDS011;47274;43.054;25.146;2023-02-01T18:44:40;14.87;;;6.27;;
61407;SDS011;47274;43.054;25.146;2023-02-01T18:47:13;15.10;;;6.53;;
61407;SDS011;47274;43.054;25.146;2023-02-01T18:49:42;15.07;;;5.80;;
61407;SDS011;47274;43.054;25.146;2023-02-01T18:52:11;11.17;;;4.83;;
61407;SDS011;47274;43.054;25.146;2023-02-01T18:54:39;11.80;;;4.60;;
61407;SDS011;47274;43.054;25.146;2023-02-01T18:57:05;10.90;;;4.83;;
61407;SDS011;47274;43.054;25.146;2023-02-01T18:59:36;17.77;;;7.53;;
61407;SDS011;47274;43.054;25.146;2023-02-01T19:02:03;15.50;;;6.43;;
61407;SDS011;47274;43.054;25.146;2023-02-01T19:04:35;16.50;;;7.20;;
61407;SDS011;47274;43.054;25.146;2023-02-01T19:07:01;11.77;;;5.70;;
61407;SDS011;47274;43.054;25.146;2023-02-01T19:09:27;8.93;;;4.60;;
61407;SDS011;47274;43.054;25.146;2023-02-01T19:12:02;9.77;;;4.03;;
61407;SDS011;47274;43.054;25.146;2023-02-01T19:14:35;11.77;;;4.63;;
61407;SDS011;47274;43.054;25.146;2023-02-01T19:17:04;8.70;;;4.20;;
61407;SDS011;47274;43.054;25.146;2023-02-01T19:19:32;8.80;;;3.80;;
61407;SDS011;47274;43.054;25.146;2023-02-01T19:21:58;14.30;;;5.43;;
61407;SDS011;47274;43.054;25.146;2023-02-01T19:24:28;8.03;;;3.83;;
61407;SDS011;47274;43.054;25.146;2023-02-01T19:26:56;10.17;;;4.27;;
61407;SDS011;47274;43.054;25.146;2023-02-01T19:29:23;11.00;;;4.67;;
61407;SDS011;47274;43.054;25.146;2023-02-01T19:31:49;12.50;;;4.17;;
61407;SDS011;47274;43.054;25.146;2023-02-01T19:34:19;10.17;;;4.40;;
61407;SDS011;47274;43.054;25.146;2023-02-01T19:36:46;8.10;;;3.93;;
61407;SDS011;47274;43.054;25.146;2023-02-01T19:39:15;22.33;;;7.43;;
61407;SDS011;47274;43.054;25.146;2023-02-01T19:41:41;8.37;;;3.70;;
61407;SDS011;47274;43.054;25.146;2023-02-01T19:44:13;7.43;;;3.58;;
61407;SDS011;47274;43.054;25.146;2023-02-01T19:46:41;16.03;;;5.67;;
61407;SDS011;47274;43.054;25.146;2023-02-01T19:49:09;18.87;;;6.83;;
61407;SDS011;47274;43.054;25.146;2023-02-01T19:51:39;9.90;;;4.07;;
61407;SDS011;47274;43.054;25.146;2023-02-01T19:54:10;20.40;;;7.07;;
61407;SDS011;47274;43.054;25.146;2023-02-01T19:56:41;16.03;;;5.70;;
61407;SDS011;47274;43.054;25.146;2023-02-01T19:59:10;11.33;;;3.90;;
61407;SDS011;47274;43.054;25.146;2023-02-01T20:01:36;6.47;;;3.73;;
61407;SDS011;47274;43.054;25.146;2023-02-01T20:04:04;10.57;;;4.10;;
61407;SDS011;47274;43.054;25.146;2023-02-01T20:06:33;9.70;;;4.00;;
61407;SDS011;47274;43.054;25.146;2023-02-01T20:09:05;13.00;;;4.70;;
61407;SDS011;47274;43.054;25.146;2023-02-01T20:11:31;7.73;;;3.57;;
61407;SDS011;47274;43.054;25.146;2023-02-01T20:13:59;11.10;;;4.20;;
61407;SDS011;47274;43.054;25.146;2023-02-01T20:16:25;22.43;;;8.00;;
61407;SDS011;47274;43.054;25.146;2023-02-01T20:18:53;10.47;;;4.03;;
61407;SDS011;47274;43.054;25.146;2023-02-01T20:21:23;10.00;;;4.10;;
61407;SDS011;47274;43.054;25.146;2023-02-01T20:23:50;19.60;;;7.27;;
61407;SDS011;47274;43.054;25.146;2023-02-01T20:26:17;8.80;;;4.10;;
61407;SDS011;47274;43.054;25.146;2023-02-01T20:28:48;10.80;;;4.13;;
61407;SDS011;47274;43.054;25.146;2023-02-01T20:31:18;19.53;;;7.30;;
61407;SDS011;47274;43.054;25.146;2023-02-01T20:33:45;34.67;;;15.17;;
61407;SDS011;47274;43.054;25.146;2023-02-01T20:36:14;28.73;;;12.20;;
61407;SDS011;47274;43.054;25.146;2023-02-01T20:38:42;25.40;;;11.40;;
61407;SDS011;47274;43.054;25.146;2023-02-01T20:41:08;21.67;;;8.60;;
61407;SDS011;47274;43.054;25.146;2023-02-01T20:43:34;14.50;;;6.03;;
61407;SDS011;47274;43.054;25.146;2023-02-01T20:46:01;20.33;;;8.00;;
61407;SDS011;47274;43.054;25.146;2023-02-01T20:48:29;18.50;;;7.27;;
61407;SDS011;47274;43.054;25.146;2023-02-01T20:50:56;17.50;;;8.53;;
61407;SDS011;47274;43.054;25.146;2023-02-01T20:53:23;21.40;;;8.57;;
61407;SDS011;47274;43.054;25.146;2023-02-01T20:55:51;30.87;;;13.00;;
61407;SDS011;47274;43.054;25.146;2023-02-01T20:58:19;32.47;;;14.30;;
61407;SDS011;47274;43.054;25.146;2023-02-01T21:00:46;29.93;;;12.17;;
61407;SDS011;47274;43.054;25.146;2023-02-01T21:03:14;28.63;;;12.47;;
61407;SDS011;47274;43.054;25.146;2023-02-01T21:05:45;27.97;;;12.67;;
61407;SDS011;47274;43.054;25.146;2023-02-01T21:08:17;9.77;;;4.40;;
61407;SDS011;47274;43.054;25.146;2023-02-01T21:13:33;16.90;;;6.33;;
61407;SDS011;47274;43.054;25.146;2023-02-01T21:16:08;13.50;;;4.77;;
61407;SDS011;47274;43.054;25.146;2023-02-01T21:18:38;16.53;;;6.90;;
61407;SDS011;47274;43.054;25.146;2023-02-01T21:21:07;16.17;;;6.57;;
61407;SDS011;47274;43.054;25.146;2023-02-01T21:23:36;23.83;;;10.60;;
61407;SDS011;47274;43.054;25.146;2023-02-01T21:26:16;14.33;;;5.10;;
61407;SDS011;47274;43.054;25.146;2023-02-01T21:28:47;15.43;;;6.53;;
61407;SDS011;47274;43.054;25.146;2023-02-01T21:31:20;10.85;;;4.10;;
61407;SDS011;47274;43.054;25.146;2023-02-01T21:33:50;8.73;;;3.40;;
61407;SDS011;47274;43.054;25.146;2023-02-01T21:36:18;8.40;;;3.50;;
61407;SDS011;47274;43.054;25.146;2023-02-01T21:38:46;5.60;;;3.07;;
61407;SDS011;47274;43.054;25.146;2023-02-01T21:41:21;5.77;;;3.00;;
61407;SDS011;47274;43.054;25.146;2023-02-01T21:44:08;7.22;;;3.08;;
61407;SDS011;47274;43.054;25.146;2023-02-01T21:46:40;7.07;;;3.30;;
61407;SDS011;47274;43.054;25.146;2023-02-01T21:49:08;5.73;;;3.43;;
61407;SDS011;47274;43.054;25.146;2023-02-01T21:51:35;6.90;;;3.40;;
61407;SDS011;47274;43.054;25.146;2023-02-01T21:54:04;4.87;;;3.10;;
61407;SDS011;47274;43.054;25.146;2023-02-01T21:56:32;7.40;;;3.40;;
61407;SDS011;47274;43.054;25.146;2023-02-01T21:58:58;7.27;;;3.10;;
61407;SDS011;47274;43.054;25.146;2023-02-01T22:01:24;5.37;;;3.20;;
61407;SDS011;47274;43.054;25.146;2023-02-01T22:03:51;8.60;;;3.13;;
61407;SDS011;47274;43.054;25.146;2023-02-01T22:06:28;5.80;;;3.10;;
61407;SDS011;47274;43.054;25.146;2023-02-01T22:09:04;6.07;;;2.90;;
61407;SDS011;47274;43.054;25.146;2023-02-01T22:11:31;3.73;;;2.63;;
61407;SDS011;47274;43.054;25.146;2023-02-01T22:13:57;6.00;;;3.10;;
61407;SDS011;47274;43.054;25.146;2023-02-01T22:16:23;5.23;;;3.00;;
61407;SDS011;47274;43.054;25.146;2023-02-01T22:18:49;5.67;;;3.20;;
61407;SDS011;47274;43.054;25.146;2023-02-01T22:21:16;4.90;;;2.97;;
61407;SDS011;47274;43.054;25.146;2023-02-01T22:23:43;4.07;;;2.60;;
61407;SDS011;47274;43.054;25.146;2023-02-01T22:26:12;6.70;;;3.17;;
61407;SDS011;47274;43.054;25.146;2023-02-01T22:28:40;5.87;;;3.03;;
61407;SDS011;47274;43.054;25.146;2023-02-01T22:31:07;6.30;;;2.90;;
61407;SDS011;47274;43.054;25.146;2023-02-01T22:33:35;14.27;;;5.00;;
61407;SDS011;47274;43.054;25.146;2023-02-01T22:36:04;20.03;;;9.33;;
61407;SDS011;47274;43.054;25.146;2023-02-01T22:38:33;16.63;;;6.93;;
61407;SDS011;47274;43.054;25.146;2023-02-01T22:41:01;13.73;;;5.87;;
61407;SDS011;47274;43.054;25.146;2023-02-01T22:43:30;27.87;;;16.33;;
61407;SDS011;47274;43.054;25.146;2023-02-01T22:46:00;28.13;;;15.17;;
61407;SDS011;47274;43.054;25.146;2023-02-01T22:48:31;21.00;;;10.47;;
61407;SDS011;47274;43.054;25.146;2023-02-01T22:51:00;21.37;;;10.37;;
61407;SDS011;47274;43.054;25.146;2023-02-01T22:53:27;18.70;;;8.27;;
61407;SDS011;47274;43.054;25.146;2023-02-01T22:55:58;15.37;;;6.50;;
61407;SDS011;47274;43.054;25.146;2023-02-01T22:58:25;28.80;;;12.87;;
61407;SDS011;47274;43.054;25.146;2023-02-01T23:00:51;24.87;;;10.47;;
61407;SDS011;47274;43.054;25.146;2023-02-01T23:03:17;19.00;;;6.93;;
61407;SDS011;47274;43.054;25.146;2023-02-01T23:05:45;16.20;;;5.90;;
61407;SDS011;47274;43.054;25.146;2023-02-01T23:08:12;24.50;;;9.80;;
61407;SDS011;47274;43.054;25.146;2023-02-01T23:10:38;26.13;;;10.57;;
61407;SDS011;47274;43.054;25.146;2023-02-01T23:13:03;23.00;;;9.20;;
61407;SDS011;47274;43.054;25.146;2023-02-01T23:15:29;21.90;;;7.90;;
61407;SDS011;47274;43.054;25.146;2023-02-01T23:17:55;15.83;;;6.03;;
61407;SDS011;47274;43.054;25.146;2023-02-01T23:20:21;12.23;;;5.10;;
61407;SDS011;47274;43.054;25.146;2023-02-01T23:22:47;17.90;;;6.73;;
61407;SDS011;47274;43.054;25.146;2023-02-01T23:25:15;11.27;;;4.10;;
61407;SDS011;47274;43.054;25.146;2023-02-01T23:27:42;12.53;;;4.70;;
61407;SDS011;47274;43.054;25.146;2023-02-01T23:30:09;13.00;;;4.50;;
61407;SDS011;47274;43.054;25.146;2023-02-01T23:32:37;9.80;;;3.80;;
61407;SDS011;47274;43.054;25.146;2023-02-01T23:35:03;12.50;;;4.33;;
61407;SDS011;47274;43.054;25.146;2023-02-01T23:37:29;11.03;;;4.30;;
61407;SDS011;47274;43.054;25.146;2023-02-01T23:39:55;10.23;;;4.10;;
61407;SDS011;47274;43.054;25.146;2023-02-01T23:42:21;8.40;;;3.67;;
61407;SDS011;47274;43.054;25.146;2023-02-01T23:44:47;9.37;;;4.17;;
61407;SDS011;47274;43.054;25.146;2023-02-01T23:47:13;9.30;;;4.37;;
61407;SDS011;47274;43.054;25.146;2023-02-01T23:49:39;7.47;;;3.90;;
61407;SDS011;47274;43.054;25.146;2023-02-01T23:52:05;12.03;;;4.83;;
61407;SDS011;47274;43.054;25.146;2023-02-01T23:54:31;12.53;;;5.30;;
61407;SDS011;47274;43.054;25.146;2023-02-01T23:56:57;9.73;;;4.77;;
61407;SDS011;47274;43.054;25.146;2023-02-01T23:59:23;8.27;;;4.20;;
